sensor_id;sensor_type;location;lat;lon;timestamp;pressure;altitude;pressure_sealevel;temperature;humidity
51321;BME280;38732;49.556;6.286;2023-02-28T00:01:31;100570.88;;;3.96;43.28
51321;BME280;38732;49.556;6.286;2023-02-28T00:04:00;100583.03;;;4.02;43.54
51321;BME280;38732;49.556;6.286;2023-02-28T00:06:29;100582.56;;;3.91;43.10
51321;BME280;38732;49.556;6.286;2023-02-28T00:08:57;100581.81;;;3.94;43.41
51321;BME280;38732;49.556;6.286;2023-02-28T00:11:25;100583.09;;;3.84;44.16
51321;BME280;38732;49.556;6.286;2023-02-28T00:13:53;100586.38;;;3.81;44.21
51321;BME280;38732;49.556;6.286;2023-02-28T00:16:22;100583.81;;;3.81;43.76
51321;BME280;38732;49.556;6.286;2023-02-28T00:18:50;100586.72;;;3.89;44.11
51321;BME280;38732;49.556;6.286;2023-02-28T00:21:19;100582.69;;;3.94;43.56
51321;BME280;38732;49.556;6.286;2023-02-28T00:23:48;100584.69;;;3.82;43.94
51321;BME280;38732;49.556;6.286;2023-02-28T00:26:16;100578.81;;;3.83;44.82
51321;BME280;38732;49.556;6.286;2023-02-28T00:28:44;100580.28;;;3.78;44.46
51321;BME280;38732;49.556;6.286;2023-02-28T00:31:12;100571.75;;;3.77;44.55
51321;BME280;38732;49.556;6.286;2023-02-28T00:33:41;100574.09;;;3.73;44.28
51321;BME280;38732;49.556;6.286;2023-02-28T00:36:10;100579.06;;;3.70;44.49
51321;BME280;38732;49.556;6.286;2023-02-28T00:38:40;100588.19;;;3.64;44.63
51321;BME280;38732;49.556;6.286;2023-02-28T00:41:09;100580.53;;;3.64;45.14
51321;BME280;38732;49.556;6.286;2023-02-28T00:43:38;100579.50;;;3.61;44.82
51321;BME280;38732;49.556;6.286;2023-02-28T00:46:07;100587.38;;;3.65;45.17
51321;BME280;38732;49.556;6.286;2023-02-28T00:48:36;100573.88;;;3.68;45.08
51321;BME280;38732;49.556;6.286;2023-02-28T00:51:04;100579.41;;;3.59;45.53
51321;BME280;38732;49.556;6.286;2023-02-28T00:53:32;100582.22;;;3.46;45.59
51321;BME280;38732;49.556;6.286;2023-02-28T00:56:01;100583.44;;;3.54;45.77
51321;BME280;38732;49.556;6.286;2023-02-28T00:58:29;100577.06;;;3.64;45.80
51321;BME280;38732;49.556;6.286;2023-02-28T01:00:57;100583.75;;;3.60;45.89
51321;BME280;38732;49.556;6.286;2023-02-28T01:03:25;100584.34;;;3.55;46.07
51321;BME280;38732;49.556;6.286;2023-02-28T01:05:54;100584.81;;;3.65;45.85
51321;BME280;38732;49.556;6.286;2023-02-28T01:08:22;100586.31;;;3.42;46.62
51321;BME280;38732;49.556;6.286;2023-02-28T01:10:50;100588.13;;;3.45;46.53
51321;BME280;38732;49.556;6.286;2023-02-28T01:13:19;100586.31;;;3.42;46.78
51321;BME280;38732;49.556;6.286;2023-02-28T01:15:53;100588.19;;;3.46;46.77
51321;BME280;38732;49.556;6.286;2023-02-28T01:18:22;100584.25;;;3.53;46.49
51321;BME280;38732;49.556;6.286;2023-02-28T01:20:51;100592.44;;;3.46;46.89
51321;BME280;38732;49.556;6.286;2023-02-28T01:23:21;100586.00;;;3.54;46.70
51321;BME280;38732;49.556;6.286;2023-02-28T01:25:50;100588.50;;;3.17;47.60
51321;BME280;38732;49.556;6.286;2023-02-28T01:28:18;100589.22;;;3.50;46.70
51321;BME280;38732;49.556;6.286;2023-02-28T01:30:48;100591.66;;;3.47;47.29
51321;BME280;38732;49.556;6.286;2023-02-28T01:33:17;100594.34;;;3.50;47.03
51321;BME280;38732;49.556;6.286;2023-02-28T01:35:45;100589.88;;;3.46;47.66
51321;BME280;38732;49.556;6.286;2023-02-28T01:38:13;100589.88;;;3.46;47.14
51321;BME280;38732;49.556;6.286;2023-02-28T01:40:42;100589.81;;;3.44;47.24
51321;BME280;38732;49.556;6.286;2023-02-28T01:43:25;100581.22;;;3.42;47.26
51321;BME280;38732;49.556;6.286;2023-02-28T01:45:55;100584.28;;;3.35;47.79
51321;BME280;38732;49.556;6.286;2023-02-28T01:48:27;100583.47;;;3.36;47.59
51321;BME280;38732;49.556;6.286;2023-02-28T01:51:03;100583.47;;;3.36;48.14
51321;BME280;38732;49.556;6.286;2023-02-28T01:53:36;100580.84;;;3.35;47.94
51321;BME280;38732;49.556;6.286;2023-02-28T01:56:07;100583.56;;;3.20;48.82
51321;BME280;38732;49.556;6.286;2023-02-28T01:58:36;100578.44;;;3.38;48.01
51321;BME280;38732;49.556;6.286;2023-02-28T02:01:05;100577.28;;;3.31;48.49
51321;BME280;38732;49.556;6.286;2023-02-28T02:03:35;100568.00;;;3.33;48.33
51321;BME280;38732;49.556;6.286;2023-02-28T02:06:03;100573.38;;;3.39;48.55
51321;BME280;38732;49.556;6.286;2023-02-28T02:08:31;100572.16;;;3.31;48.73
51321;BME280;38732;49.556;6.286;2023-02-28T02:11:01;100574.81;;;3.33;48.12
51321;BME280;38732;49.556;6.286;2023-02-28T02:16:29;100567.75;;;3.27;49.25
51321;BME280;38732;49.556;6.286;2023-02-28T02:27:39;100564.22;;;3.25;49.57
51321;BME280;38732;49.556;6.286;2023-02-28T02:30:37;100566.63;;;3.22;49.31
51321;BME280;38732;49.556;6.286;2023-02-28T02:36:25;100557.22;;;3.21;49.77
51321;BME280;38732;49.556;6.286;2023-02-28T02:39:06;100557.09;;;3.18;49.48
51321;BME280;38732;49.556;6.286;2023-02-28T02:42:02;100559.56;;;3.16;50.03
51321;BME280;38732;49.556;6.286;2023-02-28T02:45:05;100558.19;;;3.23;49.90
51321;BME280;38732;49.556;6.286;2023-02-28T02:47:35;100555.50;;;3.20;49.42
51321;BME280;38732;49.556;6.286;2023-02-28T02:50:11;100554.19;;;3.10;50.25
51321;BME280;38732;49.556;6.286;2023-02-28T02:52:45;100554.19;;;3.10;50.11
51321;BME280;38732;49.556;6.286;2023-02-28T02:55:17;100555.19;;;3.14;49.94
51321;BME280;38732;49.556;6.286;2023-02-28T02:57:54;100566.63;;;3.04;50.06
51321;BME280;38732;49.556;6.286;2023-02-28T03:00:29;100568.44;;;3.07;50.45
51321;BME280;38732;49.556;6.286;2023-02-28T03:02:59;100564.16;;;3.06;50.07
51321;BME280;38732;49.556;6.286;2023-02-28T03:05:48;100561.47;;;3.02;50.40
51321;BME280;38732;49.556;6.286;2023-02-28T03:08:17;100565.63;;;3.00;50.38
51321;BME280;38732;49.556;6.286;2023-02-28T03:10:48;100562.19;;;3.00;50.28
51321;BME280;38732;49.556;6.286;2023-02-28T03:15:59;100558.56;;;2.95;50.80
51321;BME280;38732;49.556;6.286;2023-02-28T03:18:52;100554.19;;;2.92;50.80
51321;BME280;38732;49.556;6.286;2023-02-28T03:21:28;100556.78;;;2.94;50.55
51321;BME280;38732;49.556;6.286;2023-02-28T03:26:35;100562.38;;;2.87;51.78
51321;BME280;38732;49.556;6.286;2023-02-28T03:29:14;100561.50;;;2.86;50.88
51321;BME280;38732;49.556;6.286;2023-02-28T03:31:58;100559.69;;;2.84;50.95
51321;BME280;38732;49.556;6.286;2023-02-28T03:34:34;100557.78;;;2.79;52.06
51321;BME280;38732;49.556;6.286;2023-02-28T03:37:09;100553.41;;;2.77;51.47
51321;BME280;38732;49.556;6.286;2023-02-28T03:39:45;100551.81;;;2.79;51.20
51321;BME280;38732;49.556;6.286;2023-02-28T03:42:20;100561.97;;;2.77;51.43
51321;BME280;38732;49.556;6.286;2023-02-28T03:47:54;100563.31;;;2.71;52.20
51321;BME280;38732;49.556;6.286;2023-02-28T03:50:29;100564.19;;;2.71;52.20
51321;BME280;38732;49.556;6.286;2023-02-28T03:53:11;100561.72;;;2.73;51.99
51321;BME280;38732;49.556;6.286;2023-02-28T03:56:06;100561.13;;;2.61;52.02
51321;BME280;38732;49.556;6.286;2023-02-28T04:01:14;100561.25;;;2.64;52.27
51321;BME280;38732;49.556;6.286;2023-02-28T04:03:44;100566.72;;;2.53;52.53
51321;BME280;38732;49.556;6.286;2023-02-28T04:06:16;100557.28;;;2.69;52.15
51321;BME280;38732;49.556;6.286;2023-02-28T04:08:46;100568.13;;;2.65;52.22
51321;BME280;38732;49.556;6.286;2023-02-28T04:13:42;100562.56;;;2.55;52.44
51321;BME280;38732;49.556;6.286;2023-02-28T04:16:11;100569.16;;;2.52;52.69
51321;BME280;38732;49.556;6.286;2023-02-28T04:18:39;100577.16;;;2.42;52.50
51321;BME280;38732;49.556;6.286;2023-02-28T04:21:08;100569.47;;;2.40;52.62
51321;BME280;38732;49.556;6.286;2023-02-28T04:23:37;100570.81;;;2.33;53.53
51321;BME280;38732;49.556;6.286;2023-02-28T04:26:06;100568.88;;;2.29;53.26
51321;BME280;38732;49.556;6.286;2023-02-28T04:28:34;100567.38;;;2.33;53.36
51321;BME280;38732;49.556;6.286;2023-02-28T04:31:05;100562.19;;;2.31;54.19
51321;BME280;38732;49.556;6.286;2023-02-28T04:33:33;100563.00;;;2.30;54.79
51321;BME280;38732;49.556;6.286;2023-02-28T04:36:06;100564.91;;;2.34;53.97
51321;BME280;38732;49.556;6.286;2023-02-28T04:38:36;100566.53;;;2.32;54.78
51321;BME280;38732;49.556;6.286;2023-02-28T04:41:05;100562.06;;;2.28;54.98
51321;BME280;38732;49.556;6.286;2023-02-28T04:43:33;100557.06;;;2.30;55.35
51321;BME280;38732;49.556;6.286;2023-02-28T04:46:04;100558.69;;;2.29;55.98
51321;BME280;38732;49.556;6.286;2023-02-28T04:48:35;100567.00;;;2.25;56.78
51321;BME280;38732;49.556;6.286;2023-02-28T04:51:10;100560.00;;;2.21;56.96
51321;BME280;38732;49.556;6.286;2023-02-28T04:53:39;100567.41;;;1.84;58.83
51321;BME280;38732;49.556;6.286;2023-02-28T04:56:11;100562.63;;;2.23;58.06
51321;BME280;38732;49.556;6.286;2023-02-28T04:58:39;100563.34;;;2.20;58.22
51321;BME280;38732;49.556;6.286;2023-02-28T05:01:34;100567.53;;;2.20;58.74
51321;BME280;38732;49.556;6.286;2023-02-28T05:04:03;100560.84;;;2.22;59.20
51321;BME280;38732;49.556;6.286;2023-02-28T05:06:33;100562.78;;;2.26;59.08
51321;BME280;38732;49.556;6.286;2023-02-28T05:09:01;100568.38;;;2.02;60.79
51321;BME280;38732;49.556;6.286;2023-02-28T05:11:31;100564.47;;;2.25;60.30
51321;BME280;38732;49.556;6.286;2023-02-28T05:14:04;100564.50;;;2.27;60.56
51321;BME280;38732;49.556;6.286;2023-02-28T05:16:32;100563.00;;;2.30;60.78
51321;BME280;38732;49.556;6.286;2023-02-28T05:19:01;100563.78;;;2.29;61.13
51321;BME280;38732;49.556;6.286;2023-02-28T05:21:38;100569.06;;;2.32;61.42
51321;BME280;38732;49.556;6.286;2023-02-28T05:24:11;100566.44;;;2.31;61.26
51321;BME280;38732;49.556;6.286;2023-02-28T05:26:41;100570.91;;;2.19;61.75
51321;BME280;38732;49.556;6.286;2023-02-28T05:29:10;100570.66;;;2.30;61.47
51321;BME280;38732;49.556;6.286;2023-02-28T05:31:38;100571.75;;;2.35;61.36
51321;BME280;38732;49.556;6.286;2023-02-28T05:34:06;100566.34;;;2.29;61.69
51321;BME280;38732;49.556;6.286;2023-02-28T05:36:36;100571.69;;;2.34;61.78
51321;BME280;38732;49.556;6.286;2023-02-28T05:39:06;100573.22;;;2.30;61.82
51321;BME280;38732;49.556;6.286;2023-02-28T05:41:34;100575.91;;;2.33;62.38
51321;BME280;38732;49.556;6.286;2023-02-28T05:44:03;100576.72;;;2.32;61.67
51321;BME280;38732;49.556;6.286;2023-02-28T05:46:31;100577.81;;;2.37;62.14
51321;BME280;38732;49.556;6.286;2023-02-28T05:48:59;100577.09;;;2.40;62.05
51321;BME280;38732;49.556;6.286;2023-02-28T05:51:27;100578.44;;;2.33;62.82
51321;BME280;38732;49.556;6.286;2023-02-28T05:53:59;100581.00;;;2.33;61.87
51321;BME280;38732;49.556;6.286;2023-02-28T05:56:28;100574.94;;;2.31;62.12
51321;BME280;38732;49.556;6.286;2023-02-28T05:58:56;100580.63;;;2.26;62.71
51321;BME280;38732;49.556;6.286;2023-02-28T06:01:44;100579.81;;;2.27;62.46
51321;BME280;38732;49.556;6.286;2023-02-28T06:04:15;100579.97;;;2.30;62.47
51321;BME280;38732;49.556;6.286;2023-02-28T06:06:47;100576.81;;;2.18;63.49
51321;BME280;38732;49.556;6.286;2023-02-28T06:09:16;100574.00;;;2.13;63.96
51321;BME280;38732;49.556;6.286;2023-02-28T06:11:44;100571.53;;;2.14;64.00
51321;BME280;38732;49.556;6.286;2023-02-28T06:14:17;100572.72;;;2.21;63.97
51321;BME280;38732;49.556;6.286;2023-02-28T06:16:46;100574.66;;;2.09;63.98
51321;BME280;38732;49.556;6.286;2023-02-28T06:19:14;100577.59;;;2.00;64.87
51321;BME280;38732;49.556;6.286;2023-02-28T06:21:43;100583.78;;;2.22;64.30
51321;BME280;38732;49.556;6.286;2023-02-28T06:24:11;100579.97;;;2.13;64.28
51321;BME280;38732;49.556;6.286;2023-02-28T06:26:39;100587.28;;;2.24;64.92
51321;BME280;38732;49.556;6.286;2023-02-28T06:29:07;100590.31;;;2.33;63.87
51321;BME280;38732;49.556;6.286;2023-02-28T06:31:35;100597.72;;;2.28;64.06
51321;BME280;38732;49.556;6.286;2023-02-28T06:34:04;100597.97;;;2.33;63.83
51321;BME280;38732;49.556;6.286;2023-02-28T06:36:32;100601.47;;;2.35;63.48
51321;BME280;38732;49.556;6.286;2023-02-28T06:39:00;100597.50;;;2.40;63.57
51321;BME280;38732;49.556;6.286;2023-02-28T06:41:29;100597.41;;;2.38;63.50
51321;BME280;38732;49.556;6.286;2023-02-28T06:43:57;100601.00;;;2.42;63.50
51321;BME280;38732;49.556;6.286;2023-02-28T06:46:25;100601.06;;;2.44;63.69
51321;BME280;38732;49.556;6.286;2023-02-28T06:48:53;100601.19;;;2.47;63.20
51321;BME280;38732;49.556;6.286;2023-02-28T06:51:22;100604.81;;;2.50;63.27
51321;BME280;38732;49.556;6.286;2023-02-28T06:53:50;100611.34;;;2.45;64.16
51321;BME280;38732;49.556;6.286;2023-02-28T06:56:19;100606.69;;;2.54;63.54
51321;BME280;38732;49.556;6.286;2023-02-28T06:58:49;100609.66;;;2.29;64.46
51321;BME280;38732;49.556;6.286;2023-02-28T07:01:18;100606.97;;;2.43;64.11
51321;BME280;38732;49.556;6.286;2023-02-28T07:03:46;100616.69;;;2.50;63.67
51321;BME280;38732;49.556;6.286;2023-02-28T07:06:15;100619.38;;;2.53;63.90
51321;BME280;38732;49.556;6.286;2023-02-28T07:08:43;100625.72;;;2.61;63.78
51321;BME280;38732;49.556;6.286;2023-02-28T07:11:11;100621.94;;;2.53;63.77
51321;BME280;38732;49.556;6.286;2023-02-28T07:13:39;100620.97;;;2.34;64.20
51321;BME280;38732;49.556;6.286;2023-02-28T07:16:10;100632.84;;;2.50;63.63
51321;BME280;38732;49.556;6.286;2023-02-28T07:18:39;100624.66;;;2.74;63.21
51321;BME280;38732;49.556;6.286;2023-02-28T07:21:09;100630.81;;;2.77;62.53
51321;BME280;38732;49.556;6.286;2023-02-28T07:23:38;100628.69;;;2.87;62.19
51321;BME280;38732;49.556;6.286;2023-02-28T07:26:10;100627.44;;;2.78;62.73
51321;BME280;38732;49.556;6.286;2023-02-28T07:28:39;100631.53;;;2.75;62.77
51321;BME280;38732;49.556;6.286;2023-02-28T07:31:08;100637.50;;;2.75;62.62
51321;BME280;38732;49.556;6.286;2023-02-28T07:33:36;100627.78;;;2.68;62.62
51321;BME280;38732;49.556;6.286;2023-02-28T07:36:10;100629.75;;;2.90;62.69
51321;BME280;38732;49.556;6.286;2023-02-28T07:38:38;100632.22;;;2.89;62.14
51321;BME280;38732;49.556;6.286;2023-02-28T07:41:07;100627.94;;;3.06;61.96
51321;BME280;38732;49.556;6.286;2023-02-28T07:43:35;100633.38;;;2.77;62.11
51321;BME280;38732;49.556;6.286;2023-02-28T07:46:09;100626.63;;;3.14;60.74
51321;BME280;38732;49.556;6.286;2023-02-28T07:48:38;100625.75;;;3.13;60.72
51321;BME280;38732;49.556;6.286;2023-02-28T07:51:06;100622.97;;;3.09;60.32
51321;BME280;38732;49.556;6.286;2023-02-28T07:53:34;100627.88;;;3.22;60.12
51321;BME280;38732;49.556;6.286;2023-02-28T07:56:03;100627.88;;;3.22;59.91
51321;BME280;38732;49.556;6.286;2023-02-28T07:58:32;100629.41;;;3.18;59.57
51321;BME280;38732;49.556;6.286;2023-02-28T08:01:10;100628.44;;;3.16;59.72
51321;BME280;38732;49.556;6.286;2023-02-28T08:03:39;100621.88;;;3.39;58.57
51321;BME280;38732;49.556;6.286;2023-02-28T08:06:15;100635.47;;;2.86;60.31
51321;BME280;38732;49.556;6.286;2023-02-28T08:08:44;100626.78;;;3.17;59.16
51321;BME280;38732;49.556;6.286;2023-02-28T08:11:13;100631.22;;;3.39;58.52
51321;BME280;38732;49.556;6.286;2023-02-28T08:13:41;100631.31;;;3.58;58.06
51321;BME280;38732;49.556;6.286;2023-02-28T08:16:11;100627.28;;;3.63;57.48
51321;BME280;38732;49.556;6.286;2023-02-28T08:18:40;100621.31;;;3.45;57.30
51321;BME280;38732;49.556;6.286;2023-02-28T08:21:09;100635.44;;;3.74;57.16
51321;BME280;38732;49.556;6.286;2023-02-28T08:23:38;100632.31;;;3.44;56.87
51321;BME280;38732;49.556;6.286;2023-02-28T08:26:06;100636.19;;;3.18;57.91
51321;BME280;38732;49.556;6.286;2023-02-28T08:28:34;100626.47;;;3.46;56.73
51321;BME280;38732;49.556;6.286;2023-02-28T08:31:09;100629.34;;;3.35;56.29
51321;BME280;38732;49.556;6.286;2023-02-28T08:33:38;100624.66;;;3.08;57.43
51321;BME280;38732;49.556;6.286;2023-02-28T08:36:07;100629.97;;;3.66;54.97
51321;BME280;38732;49.556;6.286;2023-02-28T08:38:36;100621.63;;;3.33;55.58
51321;BME280;38732;49.556;6.286;2023-02-28T08:41:07;100625.25;;;3.38;55.86
51321;BME280;38732;49.556;6.286;2023-02-28T08:43:36;100631.59;;;3.29;55.13
51321;BME280;38732;49.556;6.286;2023-02-28T08:46:04;100627.19;;;3.62;54.96
51321;BME280;38732;49.556;6.286;2023-02-28T08:48:35;100626.19;;;3.58;54.32
51321;BME280;38732;49.556;6.286;2023-02-28T08:51:06;100621.91;;;3.57;54.49
51321;BME280;38732;49.556;6.286;2023-02-28T08:53:35;100625.22;;;3.92;53.96
51321;BME280;38732;49.556;6.286;2023-02-28T08:56:12;100620.28;;;3.97;52.42
51321;BME280;38732;49.556;6.286;2023-02-28T08:58:40;100631.88;;;4.08;52.55
51321;BME280;38732;49.556;6.286;2023-02-28T09:01:20;100628.19;;;4.21;52.10
51321;BME280;38732;49.556;6.286;2023-02-28T09:03:50;100621.09;;;4.54;50.96
51321;BME280;38732;49.556;6.286;2023-02-28T09:06:21;100627.41;;;3.84;52.31
51321;BME280;38732;49.556;6.286;2023-02-28T09:08:50;100623.91;;;4.02;51.31
51321;BME280;38732;49.556;6.286;2023-02-28T09:11:18;100625.25;;;3.94;51.93
51321;BME280;38732;49.556;6.286;2023-02-28T09:13:46;100617.75;;;4.16;51.04
51321;BME280;38732;49.556;6.286;2023-02-28T09:16:16;100608.69;;;4.63;50.14
51321;BME280;38732;49.556;6.286;2023-02-28T09:18:44;100610.19;;;3.80;51.18
51321;BME280;38732;49.556;6.286;2023-02-28T09:21:15;100619.97;;;4.28;49.93
51321;BME280;38732;49.556;6.286;2023-02-28T09:23:46;100608.03;;;4.67;49.44
51321;BME280;38732;49.556;6.286;2023-02-28T09:26:24;100602.75;;;4.43;49.13
51321;BME280;38732;49.556;6.286;2023-02-28T09:28:53;100613.91;;;4.06;49.89
51321;BME280;38732;49.556;6.286;2023-02-28T09:31:24;100607.03;;;3.86;49.76
51321;BME280;38732;49.556;6.286;2023-02-28T09:33:54;100607.44;;;4.34;48.71
51321;BME280;38732;49.556;6.286;2023-02-28T09:36:24;100614.53;;;4.20;48.69
51321;BME280;38732;49.556;6.286;2023-02-28T09:38:52;100611.22;;;4.23;49.01
51321;BME280;38732;49.556;6.286;2023-02-28T09:41:25;100612.09;;;4.43;46.78
51321;BME280;38732;49.556;6.286;2023-02-28T09:43:59;100601.13;;;5.07;47.13
51321;BME280;38732;49.556;6.286;2023-02-28T09:46:35;100597.78;;;5.30;47.26
51321;BME280;38732;49.556;6.286;2023-02-28T09:49:08;100602.69;;;4.82;46.74
51321;BME280;38732;49.556;6.286;2023-02-28T09:51:46;100602.59;;;4.60;47.30
51321;BME280;38732;49.556;6.286;2023-02-28T09:54:20;100609.53;;;4.62;47.79
51321;BME280;38732;49.556;6.286;2023-02-28T09:56:53;100598.63;;;5.29;46.28
51321;BME280;38732;49.556;6.286;2023-02-28T10:02:40;100602.19;;;5.12;45.76
51321;BME280;38732;49.556;6.286;2023-02-28T10:05:13;100603.16;;;5.15;45.20
51321;BME280;38732;49.556;6.286;2023-02-28T10:08:14;100586.03;;;5.80;44.91
51321;BME280;38732;49.556;6.286;2023-02-28T10:10:46;100595.34;;;5.78;45.06
51321;BME280;38732;49.556;6.286;2023-02-28T10:16:18;100601.44;;;6.03;43.66
51321;BME280;38732;49.556;6.286;2023-02-28T10:18:54;100605.91;;;4.99;44.75
51321;BME280;38732;49.556;6.286;2023-02-28T10:21:28;100598.44;;;6.15;42.53
51321;BME280;38732;49.556;6.286;2023-02-28T10:24:49;100600.44;;;6.47;42.82
51321;BME280;38732;49.556;6.286;2023-02-28T10:26:52;100594.00;;;5.88;41.92
51321;BME280;38732;49.556;6.286;2023-02-28T10:29:23;100591.72;;;5.28;43.64
51321;BME280;38732;49.556;6.286;2023-02-28T10:31:52;100593.56;;;5.53;43.28
51321;BME280;38732;49.556;6.286;2023-02-28T10:34:20;100598.31;;;5.44;43.75
51321;BME280;38732;49.556;6.286;2023-02-28T10:36:49;100583.56;;;6.04;41.68
51321;BME280;38732;49.556;6.286;2023-02-28T10:39:35;100584.22;;;6.48;42.86
51321;BME280;38732;49.556;6.286;2023-02-28T10:42:04;100579.06;;;6.73;40.75
51321;BME280;38732;49.556;6.286;2023-02-28T10:44:33;100578.72;;;7.15;40.66
51321;BME280;38732;49.556;6.286;2023-02-28T10:47:01;100574.69;;;6.70;41.28
51321;BME280;38732;49.556;6.286;2023-02-28T10:49:29;100566.81;;;7.17;40.78
51321;BME280;38732;49.556;6.286;2023-02-28T10:51:59;100572.97;;;6.69;41.34
51321;BME280;38732;49.556;6.286;2023-02-28T10:54:36;100570.44;;;6.21;41.84
51321;BME280;38732;49.556;6.286;2023-02-28T10:57:16;100564.31;;;7.47;39.57
51321;BME280;38732;49.556;6.286;2023-02-28T10:59:45;100557.22;;;7.68;40.19
51321;BME280;38732;49.556;6.286;2023-02-28T11:02:34;100563.13;;;6.83;40.21
51321;BME280;38732;49.556;6.286;2023-02-28T11:05:13;100564.13;;;6.61;40.44
51321;BME280;38732;49.556;6.286;2023-02-28T11:07:59;100553.28;;;7.51;39.42
51321;BME280;38732;49.556;6.286;2023-02-28T11:10:31;100551.00;;;7.60;39.59
51321;BME280;38732;49.556;6.286;2023-02-28T11:13:01;100553.69;;;7.36;40.16
51321;BME280;38732;49.556;6.286;2023-02-28T11:15:33;100555.13;;;7.55;39.35
51321;BME280;38732;49.556;6.286;2023-02-28T11:18:29;100552.66;;;7.02;40.07
51321;BME280;38732;49.556;6.286;2023-02-28T11:20:59;100541.78;;;7.98;38.75
51321;BME280;38732;49.556;6.286;2023-02-28T11:23:32;100553.03;;;7.43;39.61
51321;BME280;38732;49.556;6.286;2023-02-28T11:26:03;100548.28;;;7.86;39.39
51321;BME280;38732;49.556;6.286;2023-02-28T11:28:34;100541.25;;;8.10;38.76
51321;BME280;38732;49.556;6.286;2023-02-28T11:38:39;100532.78;;;8.45;37.14
51321;BME280;38732;49.556;6.286;2023-02-28T11:41:12;100536.34;;;8.84;36.64
51321;BME280;38732;49.556;6.286;2023-02-28T11:46:49;100529.53;;;9.24;35.27
51321;BME280;38732;49.556;6.286;2023-02-28T11:49:30;100528.53;;;9.18;36.29
51321;BME280;38732;49.556;6.286;2023-02-28T11:54:59;100520.38;;;9.37;35.72
51321;BME280;38732;49.556;6.286;2023-02-28T12:03:12;100512.81;;;9.45;35.11
51321;BME280;38732;49.556;6.286;2023-02-28T12:05:43;100521.13;;;8.95;35.53
51321;BME280;38732;49.556;6.286;2023-02-28T12:11:39;100513.41;;;8.95;35.00
51321;BME280;38732;49.556;6.286;2023-02-28T12:27:37;100515.03;;;9.69;32.21
51321;BME280;38732;49.556;6.286;2023-02-28T12:30:26;100507.97;;;9.19;32.30
51321;BME280;38732;49.556;6.286;2023-02-28T12:33:03;100509.53;;;9.13;32.56
51321;BME280;38732;49.556;6.286;2023-02-28T12:35:52;100508.22;;;9.32;32.57
51321;BME280;38732;49.556;6.286;2023-02-28T12:38:26;100507.69;;;9.46;32.69
51321;BME280;38732;49.556;6.286;2023-02-28T12:41:03;100510.91;;;9.36;32.39
51321;BME280;38732;49.556;6.286;2023-02-28T12:43:36;100507.16;;;9.23;32.57
51321;BME280;38732;49.556;6.286;2023-02-28T12:46:17;100510.22;;;9.87;32.50
51321;BME280;38732;49.556;6.286;2023-02-28T12:48:54;100502.53;;;9.46;32.94
51321;BME280;38732;49.556;6.286;2023-02-28T12:51:25;100506.47;;;9.29;32.54
51321;BME280;38732;49.556;6.286;2023-02-28T12:56:54;100514.16;;;8.90;32.32
51321;BME280;38732;49.556;6.286;2023-02-28T13:10:46;100479.41;;;12.40;28.77
51321;BME280;38732;49.556;6.286;2023-02-28T13:13:18;100477.16;;;12.80;27.39
51321;BME280;38732;49.556;6.286;2023-02-28T13:15:58;100471.38;;;13.21;27.45
51321;BME280;38732;49.556;6.286;2023-02-28T13:18:53;100479.91;;;13.02;27.04
51321;BME280;38732;49.556;6.286;2023-02-28T13:21:24;100468.38;;;12.58;27.73
51321;BME280;38732;49.556;6.286;2023-02-28T13:24:03;100470.25;;;11.86;29.03
51321;BME280;38732;49.556;6.286;2023-02-28T13:34:30;100471.97;;;10.61;30.26
51321;BME280;38732;49.556;6.286;2023-02-28T13:39:56;100471.47;;;10.30;30.87
51321;BME280;38732;49.556;6.286;2023-02-28T14:01:31;100463.09;;;12.46;27.32
51321;BME280;38732;49.556;6.286;2023-02-28T14:06:35;100459.38;;;11.43;28.27
51321;BME280;38732;49.556;6.286;2023-02-28T14:09:41;100463.78;;;11.50;28.87
51321;BME280;38732;49.556;6.286;2023-02-28T14:18:23;100471.31;;;10.72;29.79
51321;BME280;38732;49.556;6.286;2023-02-28T14:20:57;100469.97;;;10.41;29.80
51321;BME280;38732;49.556;6.286;2023-02-28T14:23:34;100464.53;;;9.80;31.32
51321;BME280;38732;49.556;6.286;2023-02-28T14:31:32;100477.38;;;10.26;30.38
51321;BME280;38732;49.556;6.286;2023-02-28T14:37:05;100486.16;;;10.31;30.83
51321;BME280;38732;49.556;6.286;2023-02-28T14:39:33;100476.84;;;9.95;30.12
51321;BME280;38732;49.556;6.286;2023-02-28T14:42:02;100479.22;;;9.84;30.74
51321;BME280;38732;49.556;6.286;2023-02-28T14:44:30;100476.97;;;10.01;31.45
51321;BME280;38732;49.556;6.286;2023-02-28T14:47:00;100472.19;;;10.21;31.54
51321;BME280;38732;49.556;6.286;2023-02-28T14:49:32;100469.19;;;10.00;31.40
51321;BME280;38732;49.556;6.286;2023-02-28T14:52:12;100477.47;;;9.83;32.00
51321;BME280;38732;49.556;6.286;2023-02-28T14:54:41;100481.38;;;9.61;31.66
51321;BME280;38732;49.556;6.286;2023-02-28T14:57:30;100474.44;;;10.04;31.00
51321;BME280;38732;49.556;6.286;2023-02-28T15:00:00;100477.03;;;9.60;31.77
51321;BME280;38732;49.556;6.286;2023-02-28T15:02:33;100476.00;;;10.43;30.72
51321;BME280;38732;49.556;6.286;2023-02-28T15:07:45;100459.13;;;11.21;30.04
51321;BME280;38732;49.556;6.286;2023-02-28T15:10:25;100457.03;;;11.61;28.90
51321;BME280;38732;49.556;6.286;2023-02-28T15:12:55;100453.41;;;11.47;28.85
51321;BME280;38732;49.556;6.286;2023-02-28T15:15:46;100454.44;;;11.63;29.03
51321;BME280;38732;49.556;6.286;2023-02-28T15:18:23;100449.81;;;12.12;28.32
51321;BME280;38732;49.556;6.286;2023-02-28T15:20:57;100451.25;;;11.85;28.56
51321;BME280;38732;49.556;6.286;2023-02-28T15:23:28;100448.88;;;12.04;28.69
51321;BME280;38732;49.556;6.286;2023-02-28T15:25:58;100448.63;;;11.81;28.83
51321;BME280;38732;49.556;6.286;2023-02-28T15:28:28;100462.06;;;11.49;29.05
51321;BME280;38732;49.556;6.286;2023-02-28T15:31:02;100457.19;;;11.07;30.00
51321;BME280;38732;49.556;6.286;2023-02-28T15:33:32;100453.59;;;11.64;29.94
51321;BME280;38732;49.556;6.286;2023-02-28T15:36:14;100455.47;;;11.76;28.90
51321;BME280;38732;49.556;6.286;2023-02-28T15:38:43;100451.88;;;11.64;28.87
51321;BME280;38732;49.556;6.286;2023-02-28T15:41:41;100456.25;;;11.01;29.09